Terminal Aerodrome Forecast
Issued by NWS Jacksonville, FL

Home | Current Version | Previous Version | Text Only | Print | Product List | Glossary On
Versions: 1 2 3 4 5 6 7 8 9 10 11 12 13 14 15 16 17
000
FTUS42 KJAX 301700
TAFSSI
TAF
KSSI 301728Z 3018/3118 04008KT P6SM VCSH SCT025 BKN080
     FM302300 03006KT P6SM VCSH SCT020 BKN120
     FM310800 35006KT P6SM FEW020 SCT250
     FM311500 33008KT P6SM FEW040=

USA.gov is the U.S. government's official web portal to all federal, state and local government web resources and services.